Time;durP1;ratioP1;P1;durP2;ratioP2;P2;SDS_P1;SDS_P2;PMS_P1;PMS_P2;Temp;Humidity;BMP_temperature;BMP_pressure;BME280_temperature;BME280_humidity;BME280_pressure;Samples;Min_cycle;Max_cycle;Signal;HPM_P1;HPM_P2
2023/10/10 00:00:55;;;;;;;130.20;10.27;;;;;;;14.46;100.00;98383.22;5000250;28;20034;-56
2023/10/10 00:03:21;;;;;;;150.48;10.77;;;;;;;14.35;100.00;98382.47;5001870;28;20440;-56
2023/10/10 00:05:47;;;;;;;107.60;9.10;;;;;;;14.45;100.00;98374.47;5001254;28;20290;-55
2023/10/10 00:08:14;;;;;;;119.15;9.95;;;;;;;14.47;100.00;98374.47;5002915;28;20056;-54
2023/10/10 00:10:50;;;;;;;156.10;10.45;;;;;;;14.64;100.00;98373.38;5000403;28;20044;-55
2023/10/10 00:13:19;;;;;;;133.80;10.32;;;;;;;14.38;100.00;98380.69;5000953;28;20014;-54
2023/10/10 00:15:50;;;;;;;133.25;10.23;;;;;;;14.16;100.00;98374.84;5000183;28;20495;-56
2023/10/10 00:18:19;;;;;;;99.25;8.98;;;;;;;13.95;100.00;98375.97;5001934;28;20330;-55
2023/10/10 00:21:07;;;;;;;117.22;9.93;;;;;;;13.82;100.00;98386.56;5000940;28;20058;-53
2023/10/10 00:23:47;;;;;;;193.25;11.82;;;;;;;14.09;100.00;98379.28;5000179;28;20108;-56
2023/10/10 00:26:13;;;;;;;110.15;9.15;;;;;;;14.28;100.00;98381.69;5000469;28;20037;-55
2023/10/10 00:28:41;;;;;;;183.90;11.35;;;;;;;14.09;100.00;98375.78;5000875;28;20026;-54
2023/10/10 00:31:10;;;;;;;121.10;9.40;;;;;;;14.21;100.00;98382.66;5000414;28;20045;-56
2023/10/10 00:33:38;;;;;;;192.02;12.25;;;;;;;13.71;100.00;98383.16;4999740;28;20509;-54
2023/10/10 00:44:17;;;;;;;127.93;9.10;;;;;;;14.14;100.00;98387.09;5000166;28;20361;-55
2023/10/10 00:46:54;;;;;;;136.40;9.60;;;;;;;13.88;100.00;98396.94;4998859;28;20042;-56
2023/10/10 00:49:26;;;;;;;152.80;9.77;;;;;;;13.58;100.00;98385.91;4998301;28;20517;-56
2023/10/10 00:51:53;;;;;;;153.75;9.35;;;;;;;13.64;100.00;98390.22;4998797;28;20046;-55
2023/10/10 00:56:54;;;;;;;142.32;9.32;;;;;;;13.81;100.00;98390.06;4998642;28;20045;-54
2023/10/10 00:59:35;;;;;;;153.95;9.50;;;;;;;13.28;100.00;98395.69;4999030;28;20389;-55
2023/10/10 01:02:04;;;;;;;145.07;10.15;;;;;;;13.58;100.00;98392.88;4998248;28;20073;-55
2023/10/10 01:04:38;;;;;;;184.85;11.00;;;;;;;13.68;100.00;98397.13;4997344;28;20061;-54
2023/10/10 01:07:03;;;;;;;185.00;10.82;;;;;;;13.96;100.00;98388.16;4998872;28;20370;-54
2023/10/10 01:09:34;;;;;;;187.63;10.48;;;;;;;13.49;100.00;98380.75;4998000;28;20393;-52
2023/10/10 01:12:04;;;;;;;176.73;10.13;;;;;;;13.35;100.00;98386.06;4997493;28;20056;-53
2023/10/10 01:14:31;;;;;;;146.07;9.65;;;;;;;13.50;100.00;98385.97;4997284;28;20065;-56
2023/10/10 01:17:00;;;;;;;154.15;9.30;;;;;;;13.83;100.00;98383.06;4997497;28;20120;-53
2023/10/10 01:19:28;;;;;;;214.85;12.00;;;;;;;13.85;100.00;98386.50;4995834;28;20501;-52
2023/10/10 01:21:58;;;;;;;154.23;9.65;;;;;;;13.60;100.00;98385.88;4997417;28;20132;-52
2023/10/10 01:24:27;;;;;;;165.35;10.10;;;;;;;13.71;100.00;98380.56;4998552;28;20029;-54
2023/10/10 01:26:53;;;;;;;100.40;7.75;;;;;;;13.67;100.00;98379.72;4998000;28;20273;-53
2023/10/10 01:29:26;;;;;;;138.70;9.68;;;;;;;13.70;100.00;98378.84;4998034;28;20046;-52
2023/10/10 01:31:52;;;;;;;;;;;;;;;13.37;100.00;98381.72;4997999;28;20064;-52
2023/10/10 01:34:30;;;;;;;152.00;9.93;;;;;;;13.33;100.00;98373.00;4997418;28;19999;-52
2023/10/10 01:37:29;;;;;;;151.68;9.40;;;;;;;13.80;100.00;98380.47;4996870;28;20513;-53
2023/10/10 01:40:16;;;;;;;123.30;8.60;;;;;;;13.73;100.00;98384.88;5010977;28;20476;-52
2023/10/10 01:42:51;;;;;;;206.45;11.52;;;;;;;13.66;100.00;98384.09;4995820;28;20451;-54
2023/10/10 01:45:18;;;;;;;120.78;8.48;;;;;;;13.44;100.00;98375.56;5010959;28;20494;-55
2023/10/10 01:47:56;;;;;;;143.45;9.80;;;;;;;13.39;100.00;98377.31;4998039;28;20032;-54
2023/10/10 01:50:22;;;;;;;160.38;9.57;;;;;;;13.17;100.00;98377.50;4997378;28;20096;-54
2023/10/10 01:52:49;;;;;;;145.15;9.65;;;;;;;13.33;100.00;98369.56;4996842;28;20030;-53
2023/10/10 01:55:17;;;;;;;112.10;8.77;;;;;;;13.43;100.00;98370.34;4996705;28;20033;-53
2023/10/10 01:57:42;;;;;;;195.27;11.38;;;;;;;13.30;100.00;98367.84;4997078;28;20424;-54
2023/10/10 02:00:22;;;;;;;147.55;9.68;;;;;;;13.12;100.00;98361.00;4996370;28;20602;-53
2023/10/10 02:02:53;;;;;;;135.40;8.80;;;;;;;13.33;100.00;98361.72;4997455;28;20207;-54
2023/10/10 02:08:17;;;;;;;200.93;11.27;;;;;;;13.62;100.00;98364.09;4997851;28;20138;-53
2023/10/10 02:10:49;;;;;;;172.63;10.60;;;;;;;13.58;100.00;98367.59;4996765;28;20048;-53
2023/10/10 02:13:17;;;;;;;145.50;9.50;;;;;;;13.26;100.00;98358.28;4997942;28;20029;-55
2023/10/10 02:15:42;;;;;;;213.85;11.65;;;;;;;12.71;100.00;98369.13;4995564;28;20038;-54
2023/10/10 02:18:17;;;;;;;172.68;10.27;;;;;;;12.61;100.00;98360.47;4995264;28;20190;-52
2023/10/10 02:25:37;;;;;;;195.05;10.70;;;;;;;13.32;100.00;98360.00;4995571;28;20370;-55
2023/10/10 02:28:09;;;;;;;257.63;12.40;;;;;;;13.38;100.00;98365.16;4997219;28;20021;-54
2023/10/10 02:30:35;;;;;;;180.52;10.48;;;;;;;13.40;100.00;98366.88;4996014;28;20060;-53
2023/10/10 02:38:22;;;;;;;141.73;9.68;;;;;;;12.91;100.00;98370.72;4996687;28;20243;-53
2023/10/10 02:41:04;;;;;;;137.88;9.23;;;;;;;12.91;100.00;98375.09;4995784;28;20091;-55
2023/10/10 02:43:45;;;;;;;259.17;14.00;;;;;;;12.57;100.00;98383.97;4995414;28;20277;-55
2023/10/10 02:46:17;;;;;;;159.70;10.30;;;;;;;12.46;100.00;98384.91;4997473;28;20038;-60
2023/10/10 02:48:49;;;;;;;213.38;11.90;;;;;;;12.58;100.00;98383.97;4994685;28;20309;-54
2023/10/10 02:51:16;;;;;;;122.10;8.82;;;;;;;13.01;100.00;98392.41;4996480;28;20121;-54
2023/10/10 02:53:47;;;;;;;211.75;11.57;;;;;;;12.87;100.00;98380.31;4995695;28;20041;-54
2023/10/10 02:56:20;;;;;;;160.98;9.75;;;;;;;12.96;100.00;98386.38;4995348;28;20440;-52
2023/10/10 02:58:48;;;;;;;202.02;11.73;;;;;;;12.57;100.00;98379.63;4995377;28;20153;-54
2023/10/10 03:01:50;;;;;;;212.13;11.30;;;;;;;12.29;100.00;98381.50;4994820;28;20763;-54
2023/10/10 03:04:08;;;;;;;142.88;9.55;;;;;;;12.23;100.00;98385.00;4996434;28;20038;-55
2023/10/10 03:06:34;;;;;;;182.50;10.43;;;;;;;12.05;100.00;98378.97;4995629;28;20045;-55
2023/10/10 03:12:03;;;;;;;172.68;10.27;;;;;;;12.28;100.00;98383.22;4984913;28;20053;-53
2023/10/10 03:14:32;;;;;;;153.93;9.25;;;;;;;12.37;100.00;98388.41;4995533;28;20583;-54
2023/10/10 03:17:22;;;;;;;162.57;9.95;;;;;;;12.34;100.00;98392.78;4999892;28;20046;-54
2023/10/10 03:19:50;;;;;;;176.13;10.32;;;;;;;12.34;100.00;98383.22;5000040;28;20396;-54
2023/10/10 03:22:52;;;;;;;152.77;9.80;;;;;;;12.29;100.00;98387.56;4998677;28;20041;-55
2023/10/10 03:25:36;;;;;;;133.55;8.60;;;;;;;12.45;100.00;98392.72;4999257;28;20049;-54
2023/10/10 03:28:18;;;;;;;165.85;10.23;;;;;;;12.00;100.00;98388.50;4998788;28;20033;-54
2023/10/10 03:30:50;;;;;;;183.27;10.75;;;;;;;12.24;100.00;98395.41;4999307;28;20458;-55
2023/10/10 03:33:35;;;;;;;198.27;10.15;;;;;;;12.23;100.00;98396.31;4999550;28;20065;-55
2023/10/10 03:36:13;;;;;;;160.93;9.52;;;;;;;12.15;100.00;98395.47;4998279;28;20072;-55
2023/10/10 05:23:29;;;;;;;136.05;8.65;;;;;;;12.14;100.00;98406.72;4999710;28;20156;-54
2023/10/10 05:25:13;;;;;;;164.82;10.65;;;;;;;10.79;100.00;98412.81;4997496;28;20569;-55
2023/10/10 05:27:44;;;;;;;228.75;13.32;;;;;;;11.17;100.00;98413.78;4996425;28;20044;-55
2023/10/10 05:30:23;;;;;;;190.20;11.88;;;;;;;11.30;100.00;98412.91;4996531;28;20108;-53
2023/10/10 05:33:02;;;;;;;272.42;13.85;;;;;;;11.41;100.00;98404.22;4997481;28;20164;-54
2023/10/10 05:35:36;;;;;;;181.80;10.55;;;;;;;11.47;100.00;98406.81;4996565;28;20045;-54
2023/10/10 05:38:04;;;;;;;240.05;12.70;;;;;;;11.30;100.00;98407.69;4996236;28;20034;-55
2023/10/10 05:40:33;;;;;;;130.45;8.95;;;;;;;11.32;100.00;98408.56;4997199;28;20053;-53
2023/10/10 05:42:59;;;;;;;187.43;10.57;;;;;;;11.31;100.00;98412.03;4997643;28;20033;-53
2023/10/10 05:45:24;;;;;;;219.63;11.35;;;;;;;11.51;100.00;98403.34;4995756;28;20460;-55
2023/10/10 05:47:50;;;;;;;171.98;10.35;;;;;;;11.35;100.00;98410.28;4996658;28;20018;-53
2023/10/10 05:50:18;;;;;;;148.63;9.52;;;;;;;11.13;100.00;98418.09;4996112;28;20045;-53
2023/10/10 05:52:44;;;;;;;177.95;10.88;;;;;;;11.36;100.00;98418.97;4995018;28;20018;-55
2023/10/10 05:55:10;;;;;;;137.50;8.82;;;;;;;11.19;100.00;98420.72;4995722;28;20018;-54
2023/10/10 05:57:37;;;;;;;184.88;10.35;;;;;;;11.31;100.00;98411.16;4998081;28;20017;-54
2023/10/10 06:00:10;;;;;;;165.98;9.18;;;;;;;11.98;100.00;98426.72;4997066;28;20080;-54
2023/10/10 06:02:41;;;;;;;182.10;10.45;;;;;;;12.37;100.00;98419.69;4994856;28;20057;-53
2023/10/10 06:05:09;;;;;;;162.93;9.37;;;;;;;12.63;100.00;98416.13;4996078;28;20022;-54
2023/10/10 06:07:37;;;;;;;166.70;9.90;;;;;;;12.39;100.00;98424.91;4996773;28;21060;-55
2023/10/10 06:10:06;;;;;;;152.43;10.15;;;;;;;12.69;100.00;98422.19;4995685;28;20022;-53
2023/10/10 06:12:33;;;;;;;164.82;10.63;;;;;;;12.86;100.00;98417.75;4995427;28;20425;-56
2023/10/10 06:15:05;;;;;;;184.40;10.30;;;;;;;13.27;100.00;98428.81;4995060;28;20088;-56
2023/10/10 06:17:33;;;;;;;170.43;9.77;;;;;;;13.72;100.00;98418.88;4994984;28;20034;-53
2023/10/10 06:20:06;;;;;;;124.32;8.77;;;;;;;13.53;100.00;98430.38;4995317;28;20022;-55
2023/10/10 06:22:32;;;;;;;182.32;10.98;;;;;;;14.19;100.00;98427.16;4995219;28;20038;-55
2023/10/10 06:24:58;;;;;;;189.88;11.00;;;;;;;14.79;100.00;98422.97;4995562;28;20018;-55
2023/10/10 06:27:29;;;;;;;127.32;8.77;;;;;;;15.07;100.00;98424.31;4996262;28;20045;-56
2023/10/10 06:29:58;;;;;;;232.32;11.95;;;;;;;15.33;100.00;98426.53;4994588;28;20029;-54
2023/10/10 06:32:25;;;;;;;155.88;10.10;;;;;;;15.66;100.00;98426.00;4995665;28;20076;-55
2023/10/10 06:35:16;;;;;;;188.30;11.30;;;;;;;16.11;100.00;98417.38;4997183;28;20196;-55
2023/10/10 06:37:37;;;;;;;147.80;9.18;;;;;;;16.27;100.00;98423.16;4996424;28;20037;-55
2023/10/10 06:40:08;;;;;;;127.43;8.43;;;;;;;16.37;100.00;98420.38;4998021;28;20036;-54
2023/10/10 06:42:34;;;;;;;159.88;9.30;;;;;;;16.59;100.00;98423.41;4996018;28;20038;-55
2023/10/10 06:45:07;;;;;;;151.02;9.15;;;;;;;16.21;100.00;98422.44;4994136;28;20487;-56
2023/10/10 06:47:33;;;;;;;200.82;10.80;;;;;;;16.94;100.00;98423.56;4995251;28;20445;-54
2023/10/10 06:50:00;;;;;;;120.80;8.50;;;;;;;17.26;100.00;98427.22;4996286;28;20502;-54
2023/10/10 06:52:29;;;;;;;143.23;8.77;;;;;;;17.19;100.00;98428.31;4997543;28;20038;-54
2023/10/10 06:54:54;;;;;;;177.75;10.98;;;;;;;17.02;100.00;98432.13;4996379;28;20365;-53
2023/10/10 06:57:21;;;;;;;128.32;8.80;;;;;;;16.07;100.00;98435.84;4996324;28;20217;-55
2023/10/10 06:59:48;;;;;;;200.82;12.13;;;;;;;16.61;100.00;98440.03;4994295;28;20057;-55
2023/10/10 07:02:19;;;;;;;136.50;8.93;;;;;;;17.26;100.00;98443.00;4991972;28;20348;-54
2023/10/10 07:04:52;;;;;;;142.60;9.45;;;;;;;17.42;100.00;98450.53;4998170;28;20018;-54
2023/10/10 07:07:21;;;;;;;155.38;9.55;;;;;;;17.74;100.00;98445.41;4998649;28;20038;-54
2023/10/10 07:09:47;;;;;;;191.80;11.43;;;;;;;17.78;100.00;98450.53;4997444;28;20022;-54
2023/10/10 07:12:14;;;;;;;123.60;8.70;;;;;;;19.08;100.00;98449.66;4999595;28;20037;-56
2023/10/10 07:14:45;;;;;;;133.68;9.23;;;;;;;20.20;98.21;98448.66;4997993;28;20313;-54
2023/10/10 07:17:12;;;;;;;97.30;7.82;;;;;;;22.00;84.99;98447.09;4999592;28;20030;-54
2023/10/10 07:22:26;;;;;;;98.40;8.10;;;;;;;23.12;68.05;98448.25;5000145;28;20061;-53
2023/10/10 07:24:57;;;;;;;193.43;12.07;;;;;;;22.65;66.61;98446.91;4997715;28;20573;-56
2023/10/10 07:27:30;;;;;;;89.40;8.13;;;;;;;22.18;67.36;98456.00;4998787;28;20057;-56
2023/10/10 07:29:57;;;;;;;142.32;10.18;;;;;;;21.84;68.54;98453.91;4997539;28;20022;-55
2023/10/10 07:32:29;;;;;;;102.43;9.18;;;;;;;22.32;67.59;98455.41;4999075;28;20113;-55
2023/10/10 07:34:55;;;;;;;144.10;10.45;;;;;;;22.18;67.23;98456.88;4998318;28;20029;-57
2023/10/10 07:37:22;;;;;;;137.07;9.93;;;;;;;21.88;67.97;98456.41;4998699;28;20095;-55
2023/10/10 07:40:20;;;;;;;163.43;11.35;;;;;;;22.78;65.61;98460.44;4999036;28;20516;-55
2023/10/10 07:42:58;;;;;;;83.03;7.50;;;;;;;23.73;62.49;98456.00;4998278;28;20050;-53
2023/10/10 07:45:33;;;;;;;88.00;7.97;;;;;;;23.47;62.02;98451.97;4999960;28;20166;-54
2023/10/10 07:50:46;;;;;;;101.38;8.35;;;;;;;24.53;58.83;98454.63;5000031;28;20108;-55
2023/10/10 07:53:12;;;;;;;83.32;8.60;;;;;;;25.10;53.45;98464.00;4999240;28;20034;-55
2023/10/10 07:59:05;;;;;;;112.22;8.77;;;;;;;25.80;50.51;98461.88;4997311;28;20037;-54
2023/10/10 08:01:16;;;;;;;109.88;8.32;;;;;;;25.83;49.65;98459.88;4993810;28;20042;-56
2023/10/10 08:03:44;;;;;;;145.50;19.77;;;;;;;26.65;47.17;98456.75;5001394;28;20145;-55
2023/10/10 08:06:10;;;;;;;87.50;7.88;;;;;;;26.75;46.59;98458.84;5003167;28;20034;-54
2023/10/10 08:08:36;;;;;;;217.68;106.15;;;;;;;27.41;44.43;98461.81;5019394;28;20549;-56
2023/10/10 08:11:12;;;;;;;80.97;10.40;;;;;;;27.46;44.49;98458.81;5002447;28;20065;-54
2023/10/10 08:13:48;;;;;;;353.63;215.50;;;;;;;27.61;44.18;98469.47;5002449;28;20022;-54
2023/10/10 08:16:21;;;;;;;82.82;8.05;;;;;;;28.72;42.12;98457.50;5001486;28;20034;-56
2023/10/10 08:21:14;;;;;;;380.65;340.20;;;;;;;32.55;34.96;98452.84;5002593;28;20038;-55
2023/10/10 08:23:45;;;;;;;336.13;291.60;;;;;;;32.48;34.46;98452.53;5002323;28;20828;-56
2023/10/10 08:27:09;;;;;;;288.00;238.00;;;;;;;33.75;32.40;98461.94;5002688;28;20129;-54
2023/10/10 08:29:00;;;;;;;357.73;179.75;;;;;;;33.29;33.21;98456.19;4997713;28;20109;-57
2023/10/10 08:31:25;;;;;;;368.83;291.95;;;;;;;33.28;33.31;98445.56;5003210;28;20658;-55
2023/10/10 08:33:51;;;;;;;461.92;411.10;;;;;;;33.22;33.93;98450.50;4999657;28;20022;-56
2023/10/10 08:36:25;;;;;;;357.55;304.23;;;;;;;31.10;36.35;98462.16;5000968;28;20104;-56
2023/10/10 08:38:59;;;;;;;333.45;220.20;;;;;;;29.83;37.95;98454.91;5000392;28;20283;-55
2023/10/10 08:41:31;;;;;;;358.58;320.65;;;;;;;29.84;38.26;98453.94;5000956;28;20286;-57
2023/10/10 08:44:01;;;;;;;404.58;344.70;;;;;;;30.64;37.33;98454.97;5000321;28;20022;-56
2023/10/10 08:46:30;;;;;;;440.50;368.55;;;;;;;30.87;35.94;98443.38;5000828;28;20500;-56
2023/10/10 08:48:58;;;;;;;299.42;146.85;;;;;;;30.13;36.31;98440.13;4999364;28;20572;-56
2023/10/10 08:51:34;;;;;;;408.35;365.42;;;;;;;31.10;35.50;98443.34;5001322;28;20509;-55
2023/10/10 08:54:12;;;;;;;194.18;25.65;;;;;;;27.15;41.29;98447.47;4999412;28;20033;-55
2023/10/10 08:56:41;;;;;;;177.65;75.63;;;;;;;28.77;39.61;98442.00;5001570;28;20038;-55
2023/10/10 08:59:17;;;;;;;438.40;379.42;;;;;;;30.10;38.09;98440.38;5000187;28;20048;-55
2023/10/10 09:01:43;;;;;;;149.50;61.83;;;;;;;30.34;36.66;98431.41;5000980;28;20042;-53
2023/10/10 09:04:18;;;;;;;411.25;367.90;;;;;;;30.17;39.14;98433.56;5001599;28;20088;-56
2023/10/10 09:06:56;;;;;;;244.23;213.10;;;;;;;33.84;32.96;98440.50;5001536;28;20030;-56
2023/10/10 09:12:03;;;;;;;453.50;387.10;;;;;;;34.04;32.56;98435.94;5000391;28;20029;-56
2023/10/10 09:14:41;;;;;;;288.98;256.40;;;;;;;34.17;32.25;98432.09;5002120;28;20058;-55
2023/10/10 09:17:20;;;;;;;279.90;192.00;;;;;;;32.20;34.62;98431.53;5000205;28;20080;-56
2023/10/10 09:19:48;;;;;;;440.27;364.55;;;;;;;30.78;36.63;98434.22;5001568;28;20021;-56
2023/10/10 09:22:28;;;;;;;424.73;346.27;;;;;;;30.46;38.35;98435.78;5003046;28;20038;-55
2023/10/10 09:24:59;;;;;;;401.05;296.00;;;;;;;33.04;34.92;98436.88;4999332;28;20080;-56
2023/10/10 09:27:28;;;;;;;377.50;337.07;;;;;;;31.68;36.55;98442.19;5001740;28;20041;-55
2023/10/10 09:29:56;;;;;;;337.58;296.90;;;;;;;33.63;34.13;98438.81;5001898;28;20375;-55
2023/10/10 09:32:36;;;;;;;326.98;261.48;;;;;;;34.07;33.44;98437.47;5001746;28;20069;-55
2023/10/10 09:35:08;;;;;;;500.17;404.48;;;;;;;31.32;36.22;98436.22;5000846;28;20116;-55
2023/10/10 09:37:38;;;;;;;144.98;23.35;;;;;;;30.08;38.48;98429.75;5002187;28;20091;-54
2023/10/10 09:40:15;;;;;;;422.20;347.45;;;;;;;31.97;36.66;98436.22;5002635;28;20032;-55
2023/10/10 09:45:26;;;;;;;422.13;367.92;;;;;;;31.51;36.06;98433.69;4997551;28;20030;-56
2023/10/10 09:47:57;;;;;;;527.38;397.20;;;;;;;31.31;36.34;98430.00;4999158;28;20286;-57
2023/10/10 09:50:35;;;;;;;423.13;377.33;;;;;;;30.20;38.76;98427.97;5001328;28;20064;-55
2023/10/10 09:53:01;;;;;;;418.48;267.77;;;;;;;31.04;38.06;98432.13;5000311;28;20056;-54
2023/10/10 10:05:59;;;;;;;420.73;317.65;;;;;;;29.46;39.77;98429.03;4998119;28;20045;-56
2023/10/10 10:09:08;;;;;;;434.00;319.90;;;;;;;30.49;38.64;98427.50;5015022;28;20076;-56
2023/10/10 10:11:47;;;;;;;281.58;208.02;;;;;;;32.71;34.62;98415.50;4999691;28;20505;-57
2023/10/10 10:14:15;;;;;;;299.30;250.15;;;;;;;34.24;32.53;98423.25;4997793;28;20025;-53
2023/10/10 10:17:19;;;;;;;175.98;63.88;;;;;;;30.32;37.48;98433.34;4999279;28;20070;-55
2023/10/10 10:19:45;;;;;;;339.00;235.75;;;;;;;33.71;33.22;98421.91;5000198;28;20025;-53
2023/10/10 10:22:18;;;;;;;323.98;227.05;;;;;;;33.25;33.46;98420.59;4998538;28;20032;-55
2023/10/10 10:24:47;;;;;;;303.17;235.75;;;;;;;32.52;34.84;98424.38;4998525;28;20040;-56
2023/10/10 10:29:55;;;;;;;394.42;317.23;;;;;;;32.23;34.14;98419.66;4999827;28;20053;-56
2023/10/10 10:32:24;;;;;;;364.50;306.63;;;;;;;31.80;34.82;98416.97;4999222;28;20044;-53
2023/10/10 10:34:56;;;;;;;336.40;278.10;;;;;;;33.02;33.36;98413.78;4998341;28;20017;-55
2023/10/10 10:37:23;;;;;;;;;;;;;;;32.23;33.65;98411.59;4993022;28;20060;-54
2023/10/10 10:40:41;;;;;;;381.05;264.73;;;;;;;31.49;35.76;98419.56;4999383;28;19913;-55
2023/10/10 10:42:50;;;;;;;327.30;225.02;;;;;;;29.78;36.44;98416.88;4997399;28;20457;-56
2023/10/10 10:45:35;;;;;;;408.73;339.45;;;;;;;29.15;39.19;98412.56;4997755;28;20045;-54
2023/10/10 10:48:34;;;;;;;539.30;417.90;;;;;;;28.62;40.00;98416.34;4997272;28;20176;-55
2023/10/10 10:51:24;;;;;;;460.92;343.20;;;;;;;30.47;37.59;98410.66;4996318;28;20113;-54
2023/10/10 10:53:50;;;;;;;363.35;300.67;;;;;;;30.83;37.07;98402.50;4998742;28;20099;-56
2023/10/10 11:01:21;;;;;;;344.13;258.88;;;;;;;28.67;39.78;98396.31;4999787;28;20578;-55
2023/10/10 11:03:53;;;;;;;309.33;235.75;;;;;;;29.74;38.53;98394.81;4999573;28;20033;-55
2023/10/10 11:06:20;;;;;;;323.60;264.75;;;;;;;29.80;39.16;98397.03;4998214;28;20037;-57
2023/10/10 11:13:59;;;;;;;232.20;106.50;;;;;;;29.07;37.54;98386.38;4997514;28;20662;-55
2023/10/10 11:16:37;;;;;;;433.23;320.90;;;;;;;28.46;38.15;98385.31;4999350;28;20500;-55
2023/10/10 11:19:12;;;;;;;436.67;172.02;;;;;;;28.06;40.08;98386.31;4998386;28;20117;-55
2023/10/10 11:21:50;;;;;;;367.70;279.48;;;;;;;28.00;39.98;98370.66;4997816;28;20041;-54
2023/10/10 11:24:23;;;;;;;360.20;273.45;;;;;;;27.55;41.45;98361.19;4997632;28;20100;-56
2023/10/10 11:29:45;;;;;;;436.25;300.60;;;;;;;27.12;43.53;98372.91;4996794;28;20029;-56
2023/10/10 11:32:24;;;;;;;338.10;237.80;;;;;;;26.74;43.19;98367.31;4995056;28;20041;-55
2023/10/10 11:34:51;;;;;;;357.27;247.90;;;;;;;26.47;44.68;98367.25;4998318;28;20352;-55
2023/10/10 11:37:23;;;;;;;263.35;229.25;;;;;;;26.22;44.81;98363.41;5000671;28;20981;-55
2023/10/10 11:39:57;;;;;;;314.98;248.20;;;;;;;25.51;44.52;98352.53;5003391;28;20045;-55
2023/10/10 11:42:30;;;;;;;347.77;272.98;;;;;;;25.77;44.48;98355.47;5001779;28;20088;-55
2023/10/10 11:45:19;;;;;;;354.33;247.57;;;;;;;25.96;45.91;98356.09;5001058;28;20026;-55
2023/10/10 11:47:48;;;;;;;323.08;236.65;;;;;;;25.13;45.47;98353.84;5001269;28;20056;-55
2023/10/10 11:50:17;;;;;;;306.98;231.35;;;;;;;25.83;46.14;98350.63;4997746;28;20024;-56
2023/10/10 11:52:56;;;;;;;369.40;292.98;;;;;;;25.59;46.63;98345.84;5010848;28;20080;-56
2023/10/10 11:55:26;;;;;;;131.57;15.23;;;;;;;24.85;44.71;98339.44;5001075;28;20033;-55
2023/10/10 11:57:57;;;;;;;365.77;286.95;;;;;;;25.38;46.34;98334.63;5002329;28;20029;-55
2023/10/10 12:00:29;;;;;;;348.60;281.50;;;;;;;25.52;45.36;98335.59;5002183;28;20054;-56
2023/10/10 12:02:57;;;;;;;405.88;326.02;;;;;;;25.37;44.88;98329.38;5002141;28;20017;-55
2023/10/10 12:08:05;;;;;;;342.80;289.40;;;;;;;25.45;47.99;98329.78;4999707;28;20474;-53
2023/10/10 12:13:34;;;;;;;375.88;267.30;;;;;;;25.48;45.34;98326.97;5000401;28;20060;-54
2023/10/10 12:16:10;;;;;;;375.80;298.00;;;;;;;25.38;46.04;98317.81;4999011;28;20048;-56
2023/10/10 12:18:43;;;;;;;348.88;242.55;;;;;;;25.85;46.02;98316.78;5002548;28;20018;-55
2023/10/10 12:21:10;;;;;;;397.63;288.83;;;;;;;25.84;46.17;98320.38;4999766;28;20549;-56
2023/10/10 12:23:36;;;;;;;352.83;281.00;;;;;;;25.69;46.13;98321.31;5001363;28;20088;-55
2023/10/10 12:26:04;;;;;;;381.48;305.08;;;;;;;25.91;46.99;98312.88;4999069;28;20122;-56
2023/10/10 12:28:30;;;;;;;270.52;219.55;;;;;;;25.65;48.38;98312.69;5001040;28;20109;-54
2023/10/10 12:31:03;;;;;;;294.33;196.52;;;;;;;25.52;47.00;98309.84;5002917;28;20352;-56
2023/10/10 12:33:29;;;;;;;377.02;276.70;;;;;;;25.44;46.45;98306.78;5001673;28;20561;-55
2023/10/10 12:35:56;;;;;;;284.58;227.25;;;;;;;25.51;48.44;98313.47;5000771;28;20124;-56
2023/10/10 12:38:23;;;;;;;295.70;209.23;;;;;;;25.70;47.44;98301.72;5001762;28;20076;-56
2023/10/10 12:40:52;;;;;;;262.80;177.65;;;;;;;25.57;46.92;98307.78;5000734;28;20424;-55
2023/10/10 12:43:19;;;;;;;323.92;206.38;;;;;;;26.05;45.16;98301.34;4999027;28;20029;-55
2023/10/10 12:45:51;;;;;;;396.02;296.17;;;;;;;25.79;46.10;98300.31;5000185;28;20278;-55
2023/10/10 12:48:23;;;;;;;281.88;199.35;;;;;;;25.37;46.13;98297.44;4999042;28;20033;-55
2023/10/10 12:50:52;;;;;;;375.10;320.90;;;;;;;25.90;45.45;98292.50;5001713;28;20149;-56
2023/10/10 12:53:19;;;;;;;462.27;319.02;;;;;;;25.90;45.45;98292.50;4999156;28;20064;-55
2023/10/10 12:56:02;;;;;;;291.42;227.20;;;;;;;25.65;44.90;98283.38;5001041;28;20044;-55
2023/10/10 12:58:30;;;;;;;296.45;233.55;;;;;;;25.62;45.64;98288.88;5000717;28;20028;-54
2023/10/10 13:00:57;;;;;;;279.50;203.65;;;;;;;25.64;46.57;98278.16;5001298;28;20046;-57
2023/10/10 13:03:28;;;;;;;341.85;272.63;;;;;;;25.65;43.55;98277.19;4997890;28;20055;-56
2023/10/10 13:06:03;;;;;;;340.77;218.02;;;;;;;25.39;44.19;98274.28;5000582;28;20037;-54
2023/10/10 13:08:38;;;;;;;353.45;231.30;;;;;;;25.97;45.78;98275.19;4999522;28;20025;-56
2023/10/10 13:11:14;;;;;;;442.25;328.27;;;;;;;25.95;45.58;98274.44;4998503;28;20602;-55
2023/10/10 13:13:48;;;;;;;377.90;249.68;;;;;;;25.78;43.67;98278.16;4999957;28;20615;-55
2023/10/10 13:18:59;;;;;;;311.27;272.88;;;;;;;26.16;47.32;98270.53;4998123;28;20279;-54
2023/10/10 13:21:24;;;;;;;264.02;215.45;;;;;;;26.06;46.71;98265.78;4999476;28;20026;-55
2023/10/10 13:23:51;;;;;;;342.35;215.73;;;;;;;25.99;45.67;98275.09;4999983;28;20029;-55
2023/10/10 13:26:18;;;;;;;336.38;197.63;;;;;;;26.27;45.05;98280.53;4997041;28;20606;-55
2023/10/10 13:28:47;;;;;;;255.98;183.85;;;;;;;26.35;44.68;98271.06;5000414;28;20374;-57
2023/10/10 13:31:17;;;;;;;429.42;269.20;;;;;;;25.97;44.79;98272.53;4998188;28;20041;-56
2023/10/10 13:33:43;;;;;;;321.98;242.02;;;;;;;26.09;46.83;98270.91;5001213;28;20036;-55
2023/10/10 13:36:11;;;;;;;429.35;284.58;;;;;;;25.96;45.75;98268.16;4998386;28;20053;-56
2023/10/10 13:38:48;;;;;;;328.15;219.32;;;;;;;25.95;46.39;98268.25;5000151;28;20022;-56
2023/10/10 13:41:20;;;;;;;373.75;229.00;;;;;;;25.76;44.04;98271.19;4998078;28;20080;-54
2023/10/10 13:43:49;;;;;;;288.70;196.75;;;;;;;25.68;45.92;98264.53;5002116;28;20504;-55
2023/10/10 13:46:19;;;;;;;316.67;200.07;;;;;;;25.94;45.81;98262.06;4999191;28;20107;-55
2023/10/10 13:48:45;;;;;;;330.02;216.93;;;;;;;25.63;45.27;98255.97;5000902;28;20026;-55
2023/10/10 13:51:13;;;;;;;357.02;211.25;;;;;;;25.97;44.23;98255.69;5000353;28;20462;-56
2023/10/10 13:53:40;;;;;;;321.98;265.77;;;;;;;25.94;45.11;98254.06;5001793;28;20121;-55
2023/10/10 13:56:07;;;;;;;327.17;164.00;;;;;;;25.50;46.85;98258.50;5000395;28;20033;-55
2023/10/10 13:58:34;;;;;;;273.13;210.55;;;;;;;25.14;46.00;98257.97;5001514;28;20028;-54
2023/10/10 14:03:56;;;;;;;341.45;294.58;;;;;;;25.20;46.16;98252.25;4999081;28;20095;-56
2023/10/10 14:06:27;;;;;;;456.45;355.20;;;;;;;25.26;46.52;98258.16;4997914;28;20038;-53
2023/10/10 14:08:53;;;;;;;328.35;286.10;;;;;;;25.23;46.17;98253.88;4999696;28;20042;-55
2023/10/10 14:11:22;;;;;;;349.73;201.75;;;;;;;25.29;45.73;98250.00;4997182;28;20037;-55
2023/10/10 14:13:54;;;;;;;390.90;298.23;;;;;;;25.41;44.69;98243.06;4999535;28;20240;-55
2023/10/10 14:16:21;;;;;;;356.77;243.55;;;;;;;25.47;44.56;98240.88;4998380;28;20159;-55
2023/10/10 14:18:51;;;;;;;236.32;77.47;;;;;;;25.25;44.72;98236.03;4999286;28;20028;-55
2023/10/10 14:21:27;;;;;;;389.73;263.88;;;;;;;25.36;46.64;98243.38;4997950;28;20054;-55
2023/10/10 14:24:13;;;;;;;318.05;254.55;;;;;;;25.27;45.22;98235.94;4999299;28;20079;-55
2023/10/10 14:26:42;;;;;;;263.40;167.82;;;;;;;25.12;44.49;98240.38;4998661;28;20117;-56
2023/10/10 14:29:12;;;;;;;313.95;137.73;;;;;;;25.15;45.81;98235.72;4997742;28;20028;-54